Time;durP1;ratioP1;P1;durP2;ratioP2;P2;SDS_P1;SDS_P2;PMS_P1;PMS_P2;Temp;Humidity;BMP_temperature;BMP_pressure;BME280_temperature;BME280_humidity;BME280_pressure;Samples;Min_cycle;Max_cycle;Signal;HPM_P1;HPM_P2
2023/03/11 00:00:12;;;;;;;5.03;1.35;;;1.70;99.90;;;;;;4955624;28;25085;-69
2023/03/11 00:02:38;;;;;;;9.02;0.95;;;;;;;;;;4950950;28;25077;-71
2023/03/11 00:05:04;;;;;;;5.05;1.63;;;1.70;99.90;;;;;;4964483;28;25146;-68
2023/03/11 00:07:30;;;;;;;6.35;1.02;;;1.80;99.90;;;;;;4958093;28;25103;-68
2023/03/11 00:09:55;;;;;;;5.70;0.75;;;1.80;99.90;;;;;;4964839;28;25082;-69
2023/03/11 00:12:21;;;;;;;5.13;0.80;;;1.90;99.90;;;;;;4956658;28;25145;-69
2023/03/11 00:14:46;;;;;;;12.20;1.65;;;1.90;99.90;;;;;;4951496;28;25055;-67
2023/03/11 00:17:12;;;;;;;3.80;0.90;;;1.90;99.90;;;;;;4940623;28;25052;-68
2023/03/11 00:19:37;;;;;;;3.75;0.90;;;2.00;99.90;;;;;;4962256;28;25077;-69
2023/03/11 00:22:03;;;;;;;3.33;1.02;;;2.00;99.90;;;;;;4961036;28;25057;-68
2023/03/11 00:24:28;;;;;;;2.70;0.73;;;2.10;99.90;;;;;;4948915;28;25054;-71
2023/03/11 00:26:54;;;;;;;8.73;1.23;;;2.20;99.90;;;;;;4950370;28;25063;-69
2023/03/11 00:29:19;;;;;;;9.85;1.52;;;2.30;99.90;;;;;;4961428;28;25085;-70
2023/03/11 00:31:45;;;;;;;2.08;0.90;;;2.20;99.90;;;;;;4952034;28;25080;-70
2023/03/11 00:34:10;;;;;;;4.75;0.82;;;2.10;99.90;;;;;;4958698;28;25138;-70
2023/03/11 00:36:36;;;;;;;2.80;0.88;;;2.10;99.90;;;;;;4957975;28;25144;-70
2023/03/11 00:39:06;;;;;;;8.13;1.00;;;1.90;99.90;;;;;;4941023;28;25077;-68
2023/03/11 00:41:33;;;;;;;7.30;1.15;;;2.00;99.90;;;;;;4969006;28;25064;-70
2023/03/11 00:43:59;;;;;;;2.20;0.68;;;2.00;99.90;;;;;;4955078;28;25149;-69
2023/03/11 00:46:25;;;;;;;10.43;0.95;;;1.90;99.90;;;;;;4947023;28;25072;-71
2023/03/11 00:48:51;;;;;;;2.70;0.93;;;1.90;99.90;;;;;;4948862;28;25080;-68
2023/03/11 00:51:16;;;;;;;2.28;0.93;;;1.80;99.90;;;;;;4943632;28;25081;-70
2023/03/11 00:53:43;;;;;;;3.75;0.80;;;1.70;99.90;;;;;;4953251;28;25064;-67
2023/03/11 00:56:10;;;;;;;5.22;1.13;;;1.80;99.90;;;;;;4962434;28;25066;-69
2023/03/11 00:58:36;;;;;;;1.45;0.47;;;1.70;99.90;;;;;;4947602;28;25077;-71
2023/03/11 01:01:07;;;;;;;6.13;0.63;;;1.80;99.90;;;;;;4959270;28;25130;-69
2023/03/11 01:03:33;;;;;;;4.43;0.70;;;1.70;99.90;;;;;;4950283;28;25096;-68
2023/03/11 01:05:58;;;;;;;4.65;0.68;;;1.70;99.90;;;;;;4968444;28;25117;-69
2023/03/11 01:08:25;;;;;;;2.08;0.80;;;1.70;99.90;;;;;;4948703;28;24678;-70
2023/03/11 01:10:51;;;;;;;3.05;0.65;;;1.70;99.90;;;;;;4949570;28;25168;-68
2023/03/11 01:13:17;;;;;;;1.77;0.60;;;1.80;99.90;;;;;;4967040;28;25098;-69
2023/03/11 01:15:43;;;;;;;3.35;0.70;;;1.80;99.90;;;;;;4957358;28;25167;-70
2023/03/11 01:18:08;;;;;;;4.47;0.70;;;1.70;99.90;;;;;;4971681;28;25100;-69
2023/03/11 01:20:36;;;;;;;1.95;0.52;;;1.70;99.90;;;;;;4955940;28;25075;-70
2023/03/11 01:23:02;;;;;;;2.40;0.60;;;1.80;99.90;;;;;;4962327;28;25054;-69
2023/03/11 01:25:27;;;;;;;1.85;0.75;;;1.70;99.90;;;;;;4973238;28;25054;-69
2023/03/11 01:27:53;;;;;;;6.38;0.85;;;1.80;99.90;;;;;;4959147;28;25055;-70
2023/03/11 01:30:23;;;;;;;2.47;0.63;;;1.90;99.90;;;;;;4959142;28;25122;-69
2023/03/11 01:32:50;;;;;;;3.95;1.13;;;1.90;99.90;;;;;;4958918;28;25141;-69
2023/03/11 01:35:17;;;;;;;3.65;0.50;;;1.90;99.90;;;;;;4958687;28;24900;-69
2023/03/11 01:37:43;;;;;;;2.25;1.02;;;1.90;99.90;;;;;;4966869;28;25129;-69
2023/03/11 01:40:20;;;;;;;5.78;1.02;;;1.80;99.90;;;;;;4959154;28;25067;-69
2023/03/11 01:42:46;;;;;;;4.63;0.73;;;;;;;;;;4947052;28;25159;-69
2023/03/11 01:45:40;;;;;;;3.30;0.75;;;1.80;99.90;;;;;;4943209;28;25099;-70
2023/03/11 01:48:09;;;;;;;3.13;0.65;;;1.90;99.90;;;;;;4953092;28;25129;-69
2023/03/11 01:50:39;;;;;;;2.50;0.63;;;1.80;99.90;;;;;;4957507;28;25077;-69
2023/03/11 01:53:05;;;;;;;7.07;0.95;;;1.80;99.90;;;;;;4956487;28;25172;-68
2023/03/11 01:55:31;;;;;;;1.75;0.70;;;1.80;99.90;;;;;;4954470;28;25139;-70
2023/03/11 01:58:00;;;;;;;3.25;0.63;;;1.80;99.90;;;;;;4957442;28;25113;-70
2023/03/11 02:00:25;;;;;;;2.47;0.80;;;1.80;99.90;;;;;;4942380;28;25076;-69
2023/03/11 02:02:54;;;;;;;3.47;0.77;;;1.70;99.90;;;;;;4953537;28;25095;-69
2023/03/11 02:05:21;;;;;;;3.90;0.90;;;1.60;99.90;;;;;;4958001;28;25140;-69
2023/03/11 02:07:48;;;;;;;5.68;1.00;;;1.60;99.90;;;;;;4949124;28;25152;-70
2023/03/11 02:10:14;;;;;;;4.47;1.02;;;1.50;99.90;;;;;;4931327;28;25061;-69
2023/03/11 02:12:40;;;;;;;4.72;0.68;;;1.40;99.90;;;;;;4954267;28;25064;-69
2023/03/11 02:15:08;;;;;;;6.00;1.60;;;;;;;;;;4948817;28;25101;-68
2023/03/11 02:17:35;;;;;;;2.10;1.00;;;1.30;99.90;;;;;;4953786;28;25054;-71
2023/03/11 02:20:00;;;;;;;2.10;0.82;;;1.40;99.90;;;;;;4962809;28;25077;-69
2023/03/11 02:22:28;;;;;;;2.55;1.00;;;1.40;99.90;;;;;;4961114;28;25148;-69
2023/03/11 02:25:12;;;;;;;4.85;0.73;;;1.30;99.90;;;;;;4956357;28;25175;-69
2023/03/11 02:27:40;;;;;;;16.73;1.15;;;;;;;;;;4952412;28;25107;-70
2023/03/11 02:30:09;;;;;;;5.22;0.80;;;1.20;99.90;;;;;;4955578;28;25048;-70
2023/03/11 02:32:35;;;;;;;5.50;1.20;;;1.10;99.90;;;;;;4961018;28;25088;-69
2023/03/11 02:35:01;;;;;;;2.35;0.70;;;1.10;99.90;;;;;;4947591;28;25078;-69
2023/03/11 02:37:26;;;;;;;5.60;0.75;;;1.20;99.90;;;;;;4946530;28;25136;-70
2023/03/11 02:40:20;;;;;;;2.90;0.90;;;1.20;99.90;;;;;;4948076;28;25116;-69
2023/03/11 02:42:47;;;;;;;1.83;0.80;;;1.10;99.90;;;;;;4952912;28;25060;-69
2023/03/11 02:45:17;;;;;;;5.55;1.50;;;1.10;99.90;;;;;;4955642;28;25069;-67
2023/03/11 02:47:43;;;;;;;2.72;0.75;;;1.10;99.90;;;;;;4961929;28;25102;-69
2023/03/11 02:50:12;;;;;;;1.15;0.75;;;1.00;99.90;;;;;;4956539;28;25074;-69
2023/03/11 02:52:38;;;;;;;2.20;1.05;;;1.00;99.90;;;;;;4959796;28;25151;-69
2023/03/11 02:55:04;;;;;;;2.05;0.77;;;1.00;99.90;;;;;;4959786;28;25054;-69
2023/03/11 02:57:30;;;;;;;3.30;0.80;;;1.00;99.90;;;;;;4948642;28;25213;-68
2023/03/11 02:59:55;;;;;;;2.70;0.70;;;0.80;99.90;;;;;;4952955;28;25102;-68
2023/03/11 03:02:21;;;;;;;7.63;1.23;;;0.80;99.90;;;;;;4960969;28;25048;-70
2023/03/11 03:04:46;;;;;;;3.92;0.70;;;0.80;99.90;;;;;;4958341;28;25059;-68
2023/03/11 03:07:12;;;;;;;1.38;0.65;;;0.80;99.90;;;;;;4938439;28;25079;-70
2023/03/11 03:09:37;;;;;;;7.43;1.10;;;0.70;99.90;;;;;;4945811;28;25077;-72
2023/03/11 03:12:04;;;;;;;3.90;1.50;;;0.80;99.90;;;;;;4953168;28;25057;-69
2023/03/11 03:14:30;;;;;;;9.15;1.88;;;0.60;99.90;;;;;;4958022;28;25082;-70
2023/03/11 03:16:56;;;;;;;1.67;0.82;;;0.60;99.90;;;;;;4959080;28;25065;-69
2023/03/11 03:19:21;;;;;;;6.00;1.30;;;0.60;99.90;;;;;;4965224;28;25088;-71
2023/03/11 03:21:48;;;;;;;3.38;0.95;;;;;;;;;;4945473;28;25106;-70
2023/03/11 03:24:14;;;;;;;5.97;1.30;;;0.60;99.90;;;;;;4951171;28;25076;-71
2023/03/11 03:26:39;;;;;;;3.28;1.10;;;0.60;99.90;;;;;;4960127;28;25074;-69
2023/03/11 03:29:05;;;;;;;2.97;1.20;;;0.60;99.90;;;;;;4968080;28;25072;-69
2023/03/11 03:31:31;;;;;;;10.90;2.30;;;0.50;99.90;;;;;;4958767;28;25057;-69
2023/03/11 03:33:57;;;;;;;2.20;1.20;;;0.50;99.90;;;;;;4955911;28;25056;-69
2023/03/11 03:36:23;;;;;;;4.63;1.55;;;0.50;99.90;;;;;;4968492;28;25057;-70
2023/03/11 03:38:52;;;;;;;8.32;1.10;;;0.50;99.90;;;;;;4949163;28;25123;-69
2023/03/11 03:41:17;;;;;;;5.47;1.20;;;0.50;99.90;;;;;;4971826;28;25086;-70
2023/03/11 03:43:43;;;;;;;4.47;1.20;;;0.50;99.90;;;;;;4958380;28;25113;-70
2023/03/11 03:46:08;;;;;;;2.63;1.15;;;0.40;99.90;;;;;;4962856;28;25106;-70
2023/03/11 03:48:34;;;;;;;4.72;1.42;;;0.50;99.90;;;;;;4950303;28;25040;-69
2023/03/11 03:51:05;;;;;;;3.67;1.25;;;0.50;99.90;;;;;;4947477;28;25195;-70
2023/03/11 03:53:33;;;;;;;2.92;1.30;;;0.40;99.90;;;;;;4940110;28;25114;-69
2023/03/11 03:56:02;;;;;;;6.88;1.10;;;0.40;99.90;;;;;;4973990;28;25066;-70
2023/03/11 03:58:27;;;;;;;2.55;1.00;;;0.40;99.90;;;;;;4940274;28;25070;-69
2023/03/11 04:00:57;;;;;;;2.63;1.73;;;0.40;99.90;;;;;;4949908;28;25076;-69
2023/03/11 04:03:24;;;;;;;7.32;1.73;;;0.50;99.90;;;;;;4955209;28;25116;-70
2023/03/11 04:05:50;;;;;;;8.30;1.55;;;0.40;99.90;;;;;;4964165;28;25069;-69
2023/03/11 04:08:15;;;;;;;6.10;1.35;;;0.30;99.90;;;;;;4939452;28;25052;-70
2023/03/11 04:10:41;;;;;;;1.98;1.13;;;;;;;;;;4943600;28;25059;-69
2023/03/11 04:13:06;;;;;;;5.28;1.58;;;0.10;99.90;;;;;;4960918;28;25069;-68
2023/03/11 04:15:32;;;;;;;4.25;1.40;;;;;;;;;;4963736;28;25077;-70
2023/03/11 04:17:58;;;;;;;5.28;1.63;;;;;;;;;;4958391;28;25065;-70
2023/03/11 04:20:24;;;;;;;7.00;1.90;;;0.10;99.90;;;;;;4961529;28;25077;-68
2023/03/11 04:22:49;;;;;;;3.97;1.33;;;0.20;99.90;;;;;;4958431;28;25082;-69
2023/03/11 04:25:15;;;;;;;2.60;1.42;;;0.10;99.90;;;;;;4959570;28;25060;-69
2023/03/11 04:27:44;;;;;;;3.00;0.90;;;;;;;;;;4964838;28;25067;-68
2023/03/11 04:30:11;;;;;;;4.70;1.30;;;0.10;99.90;;;;;;4955730;28;25131;-69
2023/03/11 04:32:36;;;;;;;3.80;1.02;;;0.10;99.90;;;;;;4955322;28;25120;-70
2023/03/11 04:35:03;;;;;;;3.85;1.20;;;0.00;99.90;;;;;;4954622;28;25153;-69
2023/03/11 04:37:29;;;;;;;4.78;1.45;;;0.00;99.90;;;;;;4964727;28;25126;-71
2023/03/11 04:39:55;;;;;;;3.83;1.42;;;;;;;;;;4963794;28;25067;-70
2023/03/11 04:42:21;;;;;;;9.27;1.25;;;;;;;;;;4948007;28;25064;-69
2023/03/11 04:44:47;;;;;;;4.97;1.27;;;;;;;;;;4948632;28;25108;-70
2023/03/11 04:47:13;;;;;;;2.72;0.88;;;-0.10;99.90;;;;;;4958275;28;25080;-69
2023/03/11 04:49:38;;;;;;;11.60;2.67;;;;;;;;;;4942186;28;25179;-69
2023/03/11 04:52:04;;;;;;;5.00;1.65;;;;;;;;;;4950904;28;25173;-68
2023/03/11 04:54:30;;;;;;;4.40;1.48;;;-0.10;99.90;;;;;;4949607;28;25154;-69
2023/03/11 04:56:55;;;;;;;4.63;1.45;;;-0.10;99.90;;;;;;4955167;28;25125;-71
2023/03/11 04:59:21;;;;;;;1.80;1.10;;;-0.20;99.90;;;;;;4957968;28;25138;-71
2023/03/11 05:01:46;;;;;;;6.82;1.98;;;-0.10;99.90;;;;;;4950555;28;25155;-69
2023/03/11 05:04:12;;;;;;;7.85;1.60;;;-0.20;99.90;;;;;;4947511;28;25148;-68
2023/03/11 05:06:37;;;;;;;5.57;1.40;;;-0.30;99.90;;;;;;4956493;28;25058;-69
2023/03/11 05:09:03;;;;;;;3.00;1.40;;;-0.30;99.90;;;;;;4973333;28;25130;-70
2023/03/11 05:11:29;;;;;;;7.03;1.60;;;-0.20;99.90;;;;;;4945031;28;25057;-70
2023/03/11 05:13:55;;;;;;;7.18;1.45;;;-0.10;99.90;;;;;;4947476;28;25055;-70
2023/03/11 05:16:20;;;;;;;6.70;1.48;;;-0.20;99.90;;;;;;4953235;28;25055;-69
2023/03/11 05:18:46;;;;;;;4.45;1.40;;;-0.20;99.90;;;;;;4963018;28;25164;-70
2023/03/11 05:21:12;;;;;;;7.40;1.80;;;-0.10;99.90;;;;;;4950536;28;25107;-70
2023/03/11 05:23:37;;;;;;;4.70;1.30;;;-0.20;99.90;;;;;;4954354;28;25061;-71
2023/03/11 05:26:04;;;;;;;14.15;1.73;;;-0.10;99.90;;;;;;4960599;28;25130;-69
2023/03/11 05:28:29;;;;;;;3.25;1.02;;;-0.10;99.90;;;;;;4948406;28;25102;-69
2023/03/11 05:30:55;;;;;;;5.28;1.23;;;-0.20;99.90;;;;;;4953109;28;25163;-69
2023/03/11 05:33:20;;;;;;;5.43;1.38;;;-0.40;99.90;;;;;;4964630;28;25078;-68
2023/03/11 05:35:46;;;;;;;2.65;1.52;;;-0.40;99.90;;;;;;4937270;28;25079;-69
2023/03/11 05:38:12;;;;;;;4.80;2.30;;;-0.40;99.90;;;;;;4950732;28;25074;-69
2023/03/11 05:40:38;;;;;;;3.00;1.73;;;;;;;;;;4957052;28;25061;-68
2023/03/11 05:43:04;;;;;;;7.95;1.92;;;-0.60;99.90;;;;;;4959009;28;25062;-69
2023/03/11 05:45:29;;;;;;;4.72;1.38;;;-0.50;99.90;;;;;;4957278;28;25124;-69
2023/03/11 05:47:55;;;;;;;5.32;1.58;;;-0.40;99.90;;;;;;4959070;28;25062;-70
2023/03/11 05:50:20;;;;;;;7.97;1.40;;;-0.40;99.90;;;;;;4950721;28;25081;-69
2023/03/11 05:52:46;;;;;;;3.25;1.20;;;;;;;;;;4952959;28;25068;-69
2023/03/11 05:55:12;;;;;;;3.45;1.60;;;-0.30;99.90;;;;;;4957709;28;25067;-69
2023/03/11 05:57:38;;;;;;;3.97;1.33;;;-0.30;99.90;;;;;;4964471;28;25073;-69
2023/03/11 06:00:10;;;;;;;8.13;2.15;;;-0.40;99.90;;;;;;4970007;28;25083;-69
2023/03/11 06:02:36;;;;;;;6.32;1.52;;;-0.60;99.90;;;;;;4966076;28;25078;-69
2023/03/11 06:05:02;;;;;;;3.55;1.50;;;-0.70;99.90;;;;;;4951815;28;25079;-69
2023/03/11 06:07:27;;;;;;;2.15;1.20;;;-0.70;99.90;;;;;;4960218;28;26185;-69
2023/03/11 06:09:53;;;;;;;4.43;1.42;;;-0.70;99.90;;;;;;4961284;28;25069;-69
2023/03/11 06:12:18;;;;;;;5.10;1.70;;;-0.60;99.90;;;;;;4963728;28;25098;-69
2023/03/11 06:14:44;;;;;;;7.70;1.60;;;-0.60;99.90;;;;;;4952821;28;25170;-69
2023/03/11 06:17:10;;;;;;;4.63;1.40;;;-0.60;99.90;;;;;;4955635;28;25074;-68
2023/03/11 06:19:35;;;;;;;8.55;1.95;;;-0.50;99.90;;;;;;4950733;28;25154;-72
2023/03/11 06:22:01;;;;;;;5.85;1.77;;;-0.50;99.90;;;;;;4961055;28;25067;-68
2023/03/11 06:24:27;;;;;;;6.32;1.80;;;-0.50;99.90;;;;;;4947260;28;25079;-71
2023/03/11 06:26:52;;;;;;;5.55;1.92;;;-0.50;99.90;;;;;;4960895;28;25078;-69
2023/03/11 06:29:18;;;;;;;2.33;1.45;;;-0.40;99.90;;;;;;4955534;28;25087;-69
2023/03/11 06:31:44;;;;;;;7.85;1.98;;;-0.50;99.90;;;;;;4965848;28;25083;-69
2023/03/11 06:34:10;;;;;;;3.88;2.00;;;-0.50;99.90;;;;;;4961266;28;25069;-71
2023/03/11 06:36:36;;;;;;;5.28;1.67;;;-0.40;99.90;;;;;;4954578;28;25073;-70
2023/03/11 06:39:03;;;;;;;6.47;1.90;;;-0.40;99.90;;;;;;4952006;28;25105;-70
2023/03/11 06:41:31;;;;;;;3.83;1.40;;;-0.40;99.90;;;;;;4950651;28;25333;-70
2023/03/11 06:43:58;;;;;;;2.78;1.58;;;-0.30;99.90;;;;;;4944577;28;25076;-70
2023/03/11 06:46:24;;;;;;;7.55;2.20;;;-0.20;99.90;;;;;;4951266;28;25076;-70
2023/03/11 06:48:51;;;;;;;4.00;1.80;;;-0.20;99.90;;;;;;4953748;28;25139;-70
2023/03/11 06:51:17;;;;;;;3.92;1.73;;;-0.20;99.90;;;;;;4942068;28;25105;-71
2023/03/11 06:53:43;;;;;;;3.67;2.05;;;-0.20;99.90;;;;;;4959589;28;25078;-69
2023/03/11 06:56:11;;;;;;;7.00;1.95;;;-0.20;99.90;;;;;;4952829;28;25070;-69
2023/03/11 06:58:38;;;;;;;6.00;1.92;;;-0.10;99.90;;;;;;4968184;28;25136;-69
2023/03/11 07:01:13;;;;;;;5.93;1.80;;;-0.10;99.90;;;;;;4952411;28;25134;-68
2023/03/11 07:03:39;;;;;;;6.78;1.95;;;-0.10;99.90;;;;;;4958477;28;25091;-68
2023/03/11 07:06:05;;;;;;;6.63;1.98;;;0.00;99.90;;;;;;4960280;28;25095;-68
2023/03/11 07:08:31;;;;;;;4.00;1.63;;;0.10;99.90;;;;;;4970382;28;25172;-68
2023/03/11 07:11:15;;;;;;;4.18;1.70;;;0.20;99.90;;;;;;4972801;28;25178;-68
2023/03/11 07:13:41;;;;;;;6.45;2.08;;;0.20;99.90;;;;;;4965792;28;25130;-69
2023/03/11 07:16:08;;;;;;;4.50;2.00;;;;;;;;;;4965817;28;25136;-69
2023/03/11 07:18:35;;;;;;;6.93;2.17;;;;;;;;;;4959783;28;25095;-68
2023/03/11 07:21:02;;;;;;;12.45;2.92;;;0.50;99.90;;;;;;4959575;28;25076;-68
2023/03/11 07:23:28;;;;;;;6.82;2.20;;;0.60;99.90;;;;;;4951754;28;25157;-70
2023/03/11 07:25:54;;;;;;;11.27;2.20;;;;;;;;;;4962341;28;25102;-68
2023/03/11 07:28:21;;;;;;;11.90;3.20;;;0.70;99.90;;;;;;4964872;28;25081;-68
2023/03/11 07:30:48;;;;;;;6.10;3.28;;;0.70;99.90;;;;;;4960457;28;25089;-68
2023/03/11 07:33:14;;;;;;;10.02;3.13;;;0.80;99.90;;;;;;4964106;28;25065;-70
2023/03/11 07:35:40;;;;;;;6.90;2.88;;;0.90;99.90;;;;;;4955783;28;25053;-69
2023/03/11 07:38:05;;;;;;;8.20;2.65;;;0.90;99.90;;;;;;4961820;28;25139;-70
2023/03/11 07:40:31;;;;;;;7.65;2.65;;;;;;;;;;4942877;28;25134;-70
2023/03/11 07:42:57;;;;;;;9.32;2.58;;;1.10;99.90;;;;;;4948891;28;25129;-69
2023/03/11 07:45:23;;;;;;;6.07;2.30;;;;;;;;;;4966153;28;25061;-69
2023/03/11 07:47:49;;;;;;;5.50;2.80;;;;;;;;;;4961453;28;25086;-68
2023/03/11 07:50:16;;;;;;;7.95;2.70;;;1.40;99.90;;;;;;4955652;28;25107;-69
2023/03/11 07:52:42;;;;;;;12.70;2.92;;;1.50;99.90;;;;;;4948311;28;25057;-69
2023/03/11 07:55:08;;;;;;;7.13;2.97;;;1.60;99.90;;;;;;4960148;28;25155;-68
2023/03/11 07:57:33;;;;;;;6.57;3.00;;;1.70;99.90;;;;;;4944081;28;25161;-69
2023/03/11 07:59:59;;;;;;;8.70;3.53;;;1.80;99.90;;;;;;4951959;28;25069;-69
2023/03/11 08:02:24;;;;;;;7.43;3.22;;;1.90;99.90;;;;;;4949167;28;25161;-69
2023/03/11 08:04:50;;;;;;;8.95;3.50;;;;;;;;;;4959886;28;25085;-69
2023/03/11 08:07:16;;;;;;;9.10;3.50;;;2.20;99.90;;;;;;4957255;28;25071;-68
2023/03/11 08:09:41;;;;;;;10.15;2.40;;;2.40;99.90;;;;;;4962433;28;25090;-69
2023/03/11 08:12:07;;;;;;;8.73;2.47;;;2.50;99.90;;;;;;4956715;28;25095;-69
2023/03/11 08:14:33;;;;;;;7.22;2.90;;;2.60;99.90;;;;;;4951073;28;25070;-68
2023/03/11 08:16:58;;;;;;;9.40;2.80;;;2.80;99.90;;;;;;4956618;28;25062;-70
2023/03/11 08:19:24;;;;;;;9.23;2.33;;;2.90;99.90;;;;;;4959515;28;25073;-70
2023/03/11 08:21:49;;;;;;;7.50;2.33;;;2.90;99.90;;;;;;4963303;28;25048;-72
2023/03/11 08:24:15;;;;;;;3.83;2.58;;;3.10;99.90;;;;;;4959979;28;25156;-69
2023/03/11 08:26:41;;;;;;;8.20;2.08;;;3.30;99.90;;;;;;4952460;28;25065;-71
2023/03/11 08:29:07;;;;;;;12.77;2.33;;;;;;;;;;4944026;28;25146;-70
2023/03/11 08:31:34;;;;;;;6.03;1.77;;;3.50;99.90;;;;;;4954010;28;25059;-68
2023/03/11 08:34:05;;;;;;;4.72;1.58;;;3.90;99.90;;;;;;4958386;28;25062;-69
2023/03/11 08:36:32;;;;;;;5.80;1.20;;;4.30;99.90;;;;;;4950452;28;25164;-68
2023/03/11 08:38:58;;;;;;;4.10;1.20;;;4.50;99.90;;;;;;4966420;28;25084;-67
2023/03/11 08:41:24;;;;;;;4.88;2.03;;;4.50;99.90;;;;;;4964056;28;25137;-68
2023/03/11 08:43:51;;;;;;;8.25;1.70;;;4.50;99.90;;;;;;4946429;28;25070;-69
2023/03/11 08:46:34;;;;;;;14.10;3.72;;;5.00;99.90;;;;;;4954370;28;25074;-68
2023/03/11 08:49:00;;;;;;;3.60;1.10;;;5.30;99.90;;;;;;4955772;28;25071;-69
2023/03/11 08:51:26;;;;;;;3.10;1.20;;;5.40;99.90;;;;;;4938967;28;25061;-69
2023/03/11 08:53:52;;;;;;;2.50;0.80;;;5.60;99.90;;;;;;4956407;28;25126;-70
2023/03/11 08:56:18;;;;;;;2.65;0.80;;;5.60;99.90;;;;;;4953272;28;25056;-70
2023/03/11 08:58:44;;;;;;;4.15;1.17;;;5.70;99.90;;;;;;4956694;28;25087;-69
2023/03/11 09:01:11;;;;;;;7.65;0.90;;;5.80;99.90;;;;;;4940489;28;25131;-69
2023/03/11 09:03:37;;;;;;;2.80;0.73;;;5.80;99.90;;;;;;4956228;28;25166;-69
2023/03/11 09:06:05;;;;;;;8.02;0.95;;;6.00;99.90;;;;;;4957244;28;25081;-68
2023/03/11 09:08:31;;;;;;;2.88;0.70;;;6.10;99.90;;;;;;4950649;28;25781;-71
2023/03/11 09:10:56;;;;;;;4.68;1.17;;;5.90;99.90;;;;;;4943227;28;25071;-69
2023/03/11 09:13:22;;;;;;;7.53;0.85;;;5.90;99.90;;;;;;4956776;28;25068;-70
2023/03/11 09:15:49;;;;;;;7.63;0.82;;;6.00;99.90;;;;;;4950801;28;25115;-70
2023/03/11 09:18:16;;;;;;;5.60;1.08;;;;;;;;;;4957324;28;25074;-69
2023/03/11 09:20:41;;;;;;;2.30;0.93;;;6.00;99.90;;;;;;4955991;28;25092;-69
2023/03/11 09:23:10;;;;;;;5.45;1.10;;;6.10;99.90;;;;;;4958802;28;25078;-69
2023/03/11 09:25:35;;;;;;;5.47;0.80;;;6.00;99.90;;;;;;4955185;28;25067;-71
2023/03/11 09:28:02;;;;;;;3.75;1.13;;;5.70;99.90;;;;;;4961086;28;25111;-69
2023/03/11 09:30:27;;;;;;;5.10;0.90;;;5.70;99.90;;;;;;4967565;28;25055;-70
2023/03/11 09:32:53;;;;;;;3.13;1.20;;;5.60;99.90;;;;;;4938668;28;25146;-71
2023/03/11 09:35:18;;;;;;;3.35;0.80;;;5.60;99.90;;;;;;4949952;28;25084;-70
2023/03/11 09:37:44;;;;;;;8.10;1.20;;;5.50;99.90;;;;;;4954581;28;25165;-70
2023/03/11 09:40:19;;;;;;;8.00;1.38;;;5.50;99.90;;;;;;4952338;28;25148;-70
2023/03/11 09:42:53;;;;;;;2.55;1.10;;;5.40;99.90;;;;;;4964907;28;25147;-70
2023/03/11 09:45:34;;;;;;;4.45;1.00;;;5.20;99.90;;;;;;4954424;28;25075;-68
2023/03/11 09:48:11;;;;;;;2.97;1.00;;;4.80;99.90;;;;;;4948747;28;25085;-69
2023/03/11 09:50:42;;;;;;;5.45;0.70;;;4.80;99.90;;;;;;4952432;28;25229;-70
2023/03/11 09:53:07;;;;;;;4.55;0.80;;;5.00;99.90;;;;;;4959176;28;25071;-69
2023/03/11 09:55:41;;;;;;;4.60;0.70;;;5.00;99.90;;;;;;4956502;28;25152;-69
2023/03/11 09:58:16;;;;;;;4.13;0.60;;;4.80;99.90;;;;;;4965229;28;25054;-69
2023/03/11 10:00:43;;;;;;;6.88;1.10;;;4.90;99.90;;;;;;4963609;28;25180;-70
2023/03/11 10:03:26;;;;;;;3.05;1.02;;;5.10;99.90;;;;;;4946825;28;25082;-70
2023/03/11 10:05:57;;;;;;;2.78;1.05;;;5.30;99.90;;;;;;4960345;28;25085;-71
2023/03/11 10:08:29;;;;;;;3.13;1.00;;;5.30;99.90;;;;;;4951086;28;25122;-70
2023/03/11 10:11:00;;;;;;;;;;;5.50;99.90;;;;;;4964038;28;25065;-72
2023/03/11 10:13:44;;;;;;;3.75;1.02;;;5.70;99.90;;;;;;4951834;28;24171;-70
2023/03/11 10:16:48;;;;;;;7.82;1.00;;;5.80;99.90;;;;;;4959843;28;25066;-69
2023/03/11 10:19:42;;;;;;;3.05;0.93;;;5.80;99.90;;;;;;4936195;28;25079;-70
2023/03/11 10:22:12;;;;;;;5.80;1.05;;;5.80;99.90;;;;;;4952106;28;25056;-71
2023/03/11 10:24:50;;;;;;;6.13;1.25;;;;;;;;;;4949066;28;25104;-70
2023/03/11 10:27:22;;;;;;;1.60;0.75;;;;;;;;;;4950973;28;25107;-69
2023/03/11 10:30:13;;;;;;;4.55;1.05;;;5.80;99.90;;;;;;4946389;28;25065;-70
2023/03/11 10:32:51;;;;;;;2.45;0.90;;;5.70;99.90;;;;;;4976653;28;25134;-69
2023/03/11 10:35:18;;;;;;;3.85;0.90;;;5.70;99.90;;;;;;4957374;28;25109;-70
2023/03/11 10:38:09;;;;;;;1.75;0.85;;;5.90;99.90;;;;;;4950672;28;25088;-70
2023/03/11 10:40:39;;;;;;;2.67;1.05;;;5.80;99.90;;;;;;4940408;28;25102;-70
2023/03/11 10:43:16;;;;;;;10.55;1.17;;;5.90;99.90;;;;;;4953994;28;25075;-70
2023/03/11 10:45:44;;;;;;;2.13;0.90;;;5.70;99.90;;;;;;4969296;28;25094;-71
2023/03/11 10:48:12;;;;;;;3.95;1.13;;;5.70;99.90;;;;;;4963965;28;25052;-70
2023/03/11 10:51:21;;;;;;;3.83;1.40;;;5.70;99.90;;;;;;4953199;28;25073;-70
2023/03/11 10:53:48;;;;;;;3.38;0.70;;;;;;;;;;4963570;28;25055;-70
2023/03/11 10:56:31;;;;;;;2.50;0.60;;;5.70;99.90;;;;;;4960203;28;25170;-70
2023/03/11 10:58:57;;;;;;;5.28;1.10;;;5.80;99.90;;;;;;4955060;28;25106;-71
2023/03/11 11:01:24;;;;;;;5.53;1.05;;;;;;;;;;4954376;28;25085;-71
2023/03/11 11:03:54;;;;;;;3.55;0.90;;;6.30;99.90;;;;;;4949176;28;25105;-70
2023/03/11 11:06:25;;;;;;;3.75;0.60;;;6.40;99.90;;;;;;4957208;28;25067;-70
2023/03/11 11:09:13;;;;;;;5.32;0.80;;;;;;;;;;4970022;28;25060;-69
2023/03/11 11:11:39;;;;;;;2.13;0.88;;;6.10;99.90;;;;;;4942208;28;25096;-70
2023/03/11 11:14:05;;;;;;;1.20;0.68;;;6.10;99.90;;;;;;4954302;28;25177;-70
2023/03/11 11:16:33;;;;;;;4.30;0.73;;;6.30;99.90;;;;;;4968287;28;25082;-69
2023/03/11 11:19:14;;;;;;;1.63;0.82;;;6.80;99.90;;;;;;4959748;28;25087;-70
2023/03/11 11:21:48;;;;;;;2.13;0.90;;;7.00;99.90;;;;;;4950272;28;25052;-70
2023/03/11 11:24:17;;;;;;;2.25;0.85;;;;;;;;;;4945924;28;25167;-71
2023/03/11 11:27:06;;;;;;;3.63;1.20;;;7.10;99.90;;;;;;4956773;28;25110;-70
2023/03/11 11:29:31;;;;;;;4.65;1.00;;;7.60;99.90;;;;;;4960478;28;25050;-70
2023/03/11 11:32:20;;;;;;;3.92;0.88;;;7.80;99.90;;;;;;4963236;28;25056;-71
2023/03/11 11:35:01;;;;;;;5.00;1.00;;;8.20;99.90;;;;;;4956663;28;25053;-70
2023/03/11 11:37:32;;;;;;;5.93;0.90;;;8.40;99.90;;;;;;4955324;28;25139;-70
2023/03/11 11:40:08;;;;;;;3.53;0.95;;;8.50;99.90;;;;;;4953257;28;25103;-70
2023/03/11 11:42:36;;;;;;;6.75;0.95;;;8.40;99.90;;;;;;4964644;28;25063;-71
2023/03/11 11:45:17;;;;;;;5.25;1.00;;;8.50;99.90;;;;;;4960722;28;25074;-70
2023/03/11 11:47:48;;;;;;;1.60;1.00;;;8.80;99.90;;;;;;4957550;28;25083;-71
2023/03/11 11:50:17;;;;;;;13.40;1.35;;;;;;;;;;4953823;28;25100;-71
2023/03/11 11:52:48;;;;;;;4.10;1.02;;;9.10;99.90;;;;;;4948833;28;25089;-70
2023/03/11 11:55:24;;;;;;;6.50;1.83;;;8.80;99.90;;;;;;4960152;28;25077;-71
2023/03/11 11:57:50;;;;;;;7.82;1.55;;;9.30;99.90;;;;;;4951046;28;25063;-69
2023/03/11 12:00:53;;;;;;;4.10;1.13;;;8.40;99.90;;;;;;4941668;28;25149;-71
2023/03/11 12:03:44;;;;;;;6.13;1.33;;;8.60;99.90;;;;;;4949564;28;25168;-70
2023/03/11 12:06:22;;;;;;;7.05;0.90;;;;;;;;;;4947576;28;25071;-69
2023/03/11 12:09:12;;;;;;;3.05;1.30;;;9.30;99.90;;;;;;4954480;28;25076;-70
2023/03/11 12:11:50;;;;;;;8.15;1.95;;;9.50;99.90;;;;;;4948352;28;25059;-68
2023/03/11 12:14:46;;;;;;;10.88;2.40;;;9.40;99.90;;;;;;4955606;28;25057;-72
2023/03/11 12:17:16;;;;;;;3.10;0.68;;;9.60;99.90;;;;;;4938727;28;25074;-71
2023/03/11 12:20:07;;;;;;;5.30;1.00;;;9.90;99.90;;;;;;4969654;28;25064;-70
2023/03/11 12:23:06;;;;;;;8.18;0.98;;;10.10;99.90;;;;;;4951354;28;25057;-69
2023/03/11 12:26:06;;;;;;;1.83;0.70;;;10.20;99.90;;;;;;4955546;28;25063;-70
2023/03/11 12:28:48;;;;;;;5.35;1.45;;;;;;;;;;4962262;28;25062;-71
2023/03/11 12:31:14;;;;;;;3.95;1.20;;;;;;;;;;4955368;28;25171;-70
2023/03/11 12:33:50;;;;;;;2.20;0.93;;;;;;;;;;4961967;28;25102;-70
2023/03/11 12:36:22;;;;;;;6.32;1.25;;;;;;;;;;4950107;28;25096;-70
2023/03/11 12:38:48;;;;;;;7.95;1.10;;;9.90;97.20;;;;;;4970680;28;25065;-71
2023/03/11 12:41:14;;;;;;;4.70;1.70;;;10.10;85.60;;;;;;4956335;28;25112;-73
2023/03/11 12:43:39;;;;;;;6.35;1.10;;;10.00;99.90;;;;;;4934223;28;25085;-71
2023/03/11 12:46:13;;;;;;;6.15;1.48;;;9.60;99.90;;;;;;4966343;28;25107;-71
2023/03/11 12:48:48;;;;;;;6.28;1.13;;;9.90;99.90;;;;;;4944827;28;25070;-71
2023/03/11 12:51:26;;;;;;;3.60;0.93;;;10.10;49.20;;;;;;4945087;28;25107;-69
2023/03/11 12:53:53;;;;;;;10.13;1.42;;;10.20;22.70;;;;;;4955430;28;25144;-71
2023/03/11 12:56:27;;;;;;;3.70;1.23;;;10.10;1.00;;;;;;4949966;28;25145;-70
2023/03/11 12:59:08;;;;;;;1.77;0.75;;;10.10;39.10;;;;;;4954767;28;25058;-70
2023/03/11 13:01:42;;;;;;;3.75;1.00;;;;;;;;;;4948773;28;25135;-70
2023/03/11 13:04:40;;;;;;;4.75;0.60;;;10.20;1.00;;;;;;4954869;28;25145;-69
2023/03/11 13:07:37;;;;;;;2.95;0.90;;;10.10;1.00;;;;;;4947853;28;25066;-69
2023/03/11 13:10:06;;;;;;;3.75;1.67;;;9.90;1.00;;;;;;4944863;28;25145;-69
2023/03/11 13:13:05;;;;;;;4.63;0.82;;;10.30;1.00;;;;;;4965463;28;25128;-69
2023/03/11 13:15:34;;;;;;;13.70;2.45;;;10.50;16.60;;;;;;4954995;28;25066;-70